Terminal Aerodrome Forecast
Issued by NWS

Home | Current Version | Previous Version | Graphics & Text | Print | Product List | Glossary On
Versions: 1 2 3 4 5 6 7 8 9 10 11 12 13 14 15 16
000
FTUS43 KIWX 211100
TAFSBN
TAF
KSBN 211137Z 2112/2212 26006KT P6SM BKN035
     FM211400 22006KT P6SM FEW150
     FM211700 18011KT P6SM SCT150
     FM220800 18012KT P6SM -FZRA OVC025=

USA.gov is the U.S. government's official web portal to all federal, state and local government web resources and services.